Terminal Aerodrome Forecast
Issued by NWS

Home | Current Version | Previous Version | Text Only | Print | Product List | Glossary On
Versions: 1 2 3 4 5 6 7 8 9 10 11 12 13 14 15 16 17 18 19 20 21 22 23
964
FTUS44 KCRP 241742
TAFALI
TAF
KALI 241742Z 2418/2518 15012KT P6SM SCT015 BKN025
      TEMPO 2418/2421 SCT025 BKN040
     FM242100 13015G20KT P6SM SCT030 BKN060
     FM250100 13012KT P6SM SCT020 BKN200
     FM250400 14010KT P6SM BKN015
     FM250900 15007KT 5SM BR BKN007 OVC015
     FM251500 13010G20KT P6SM BKN020=

USA.gov is the U.S. government's official web portal to all federal, state and local government web resources and services.